createdAt,value
2018-08-17T00:01:47.373Z,53.65
2018-08-17T00:04:17.301Z,53.65
2018-08-17T00:06:47.418Z,53.59
2018-08-17T00:09:17.549Z,53.56
2018-08-17T00:11:47.459Z,53.91
2018-08-17T00:14:17.597Z,53.35
2018-08-17T00:16:47.578Z,53.84
2018-08-17T00:19:17.650Z,54.16
2018-08-17T00:21:47.690Z,53.57
2018-08-17T00:24:17.862Z,54.01
2018-08-17T00:26:47.818Z,53.98
2018-08-17T00:29:17.970Z,53.54
2018-08-17T00:31:48.030Z,53.55
2018-08-17T00:34:17.982Z,53.67
2018-08-17T00:36:48.134Z,53.77
2018-08-17T00:39:18.158Z,54.50
2018-08-17T00:41:48.270Z,54.38
2018-08-17T00:44:18.245Z,54.24
2018-08-17T00:46:48.306Z,53.37
2018-08-17T00:49:18.389Z,54.64
2018-08-17T00:51:48.485Z,54.60
2018-08-17T00:54:18.510Z,54.66
2018-08-17T00:56:48.641Z,54.65
2018-08-17T00:59:18.654Z,53.84
2018-08-17T01:01:48.714Z,54.68
2018-08-17T01:04:18.879Z,53.52
2018-08-17T01:06:48.838Z,53.43
2018-08-17T01:09:18.869Z,53.59
2018-08-17T01:11:48.986Z,52.94
2018-08-17T01:14:18.147Z,52.93
2018-08-17T01:16:47.307Z,52.87
2018-08-17T01:19:16.585Z,52.70
2018-08-17T01:21:46.006Z,53.38
2018-08-17T01:24:15.165Z,53.41
2018-08-17T01:26:44.337Z,53.37
2018-08-17T01:29:13.573Z,53.39
2018-08-17T01:31:42.690Z,52.53
2018-08-17T01:34:11.838Z,52.98
2018-08-17T01:36:40.982Z,53.09
2018-08-17T01:39:10.733Z,53.37
2018-08-17T01:41:40.131Z,53.84
2018-08-17T01:44:09.290Z,52.85
2018-08-17T01:46:38.468Z,52.95
2018-08-17T01:49:07.659Z,53.27
2018-08-17T01:51:36.799Z,52.87
2018-08-17T01:54:05.950Z,54.07
2018-08-17T01:56:35.092Z,53.87
2018-08-17T01:59:04.252Z,54.08
2018-08-17T02:01:33.407Z,54.27
2018-08-17T02:04:02.568Z,54.00
2018-08-17T02:06:31.731Z,54.13
2018-08-17T02:09:00.883Z,53.50
2018-08-17T02:11:30.031Z,54.02
2018-08-17T02:13:59.209Z,54.02
2018-08-17T02:16:28.376Z,55.01
2018-08-17T02:18:57.511Z,54.28
2018-08-17T02:21:26.665Z,54.80
2018-08-17T02:23:55.819Z,54.48
2018-08-17T02:26:24.966Z,55.47
2018-08-17T02:28:54.119Z,55.34
2018-08-17T02:31:24.535Z,55.53
2018-08-17T02:33:53.738Z,54.86
2018-08-17T02:36:22.918Z,54.76
2018-08-17T02:38:52.345Z,55.85
2018-08-17T02:41:21.499Z,55.85
2018-08-17T02:43:51.423Z,56.36
2018-08-17T02:46:21.626Z,55.86
2018-08-17T02:48:51.547Z,56.14
2018-08-17T02:51:21.731Z,55.64
2018-08-17T02:53:51.755Z,56.00
2018-08-17T02:56:21.803Z,55.58
2018-08-17T02:58:51.828Z,55.93
2018-08-17T03:01:21.915Z,55.75
2018-08-17T03:03:51.951Z,56.17
2018-08-17T03:06:22.065Z,55.70
2018-08-17T03:08:52.176Z,55.66
2018-08-17T03:11:22.283Z,55.43
2018-08-17T03:13:52.311Z,55.05
2018-08-17T03:16:22.330Z,54.88
2018-08-17T03:18:52.617Z,55.12
2018-08-17T03:21:22.548Z,54.06
2018-08-17T03:23:52.575Z,53.95
2018-08-17T03:26:22.852Z,54.73
2018-08-17T03:28:52.785Z,54.64
2018-08-17T03:31:22.823Z,53.65
2018-08-17T03:33:52.863Z,53.44
2018-08-17T03:36:22.882Z,53.67
2018-08-17T03:38:52.994Z,53.44
2018-08-17T03:41:24.443Z,53.40
2018-08-17T03:43:53.624Z,53.23
2018-08-17T03:46:23.387Z,53.95
2018-08-17T03:48:53.443Z,53.06
2018-08-17T03:51:24.566Z,53.58
2018-08-17T03:53:53.742Z,52.56
2018-08-17T03:56:24.867Z,52.67
2018-08-17T03:58:54.021Z,52.68
2018-08-17T04:01:24.879Z,52.68
2018-08-17T04:03:54.031Z,53.42
2018-08-17T04:06:23.782Z,53.00
2018-08-17T04:08:53.917Z,53.31
2018-08-17T04:11:24.026Z,52.47
2018-08-17T04:13:54.047Z,52.97
2018-08-17T04:16:24.215Z,53.06
2018-08-17T04:18:59.167Z,52.96
2018-08-17T04:21:29.504Z,53.39
2018-08-17T04:23:58.764Z,53.73
2018-08-17T04:26:27.802Z,53.07
2018-08-17T04:28:57.011Z,52.81
2018-08-17T04:32:05.479Z,53.34
2018-08-17T04:34:34.631Z,52.86
2018-08-17T04:37:03.883Z,53.22
2018-08-17T04:39:33.036Z,53.38
2018-08-17T04:42:02.190Z,53.13
2018-08-17T04:44:31.711Z,52.61
2018-08-17T04:47:00.877Z,53.26
2018-08-17T04:49:30.878Z,52.28
2018-08-17T04:52:02.057Z,52.42
2018-08-17T04:54:31.208Z,52.46
2018-08-17T04:57:01.599Z,53.21
2018-08-17T04:59:31.530Z,53.48
2018-08-17T05:02:01.579Z,52.64
2018-08-17T05:04:31.776Z,53.23
2018-08-17T05:07:02.116Z,53.58
2018-08-17T05:09:31.920Z,53.52
2018-08-17T05:12:02.015Z,53.68
2018-08-17T05:14:32.203Z,52.97
2018-08-17T05:17:02.175Z,52.96
2018-08-17T05:19:32.519Z,52.64
2018-08-17T05:22:02.835Z,53.82
2018-08-17T05:24:32.473Z,53.59
2018-08-17T05:27:01.620Z,53.36
2018-08-17T05:29:30.919Z,53.25
2018-08-17T05:32:00.146Z,53.25
2018-08-17T05:34:29.359Z,54.25
2018-08-17T05:36:58.524Z,53.87
2018-08-17T05:39:27.678Z,53.65
2018-08-17T05:41:56.858Z,53.26
2018-08-17T05:44:26.095Z,53.97
2018-08-17T05:46:55.333Z,53.15
2018-08-17T05:49:26.403Z,53.90
2018-08-17T05:51:55.631Z,53.22
2018-08-17T05:54:24.951Z,52.95
2018-08-17T05:56:54.092Z,53.31
2018-08-17T05:59:23.487Z,53.73
2018-08-17T06:01:52.634Z,53.28
2018-08-17T06:04:21.816Z,53.75
2018-08-17T06:06:50.951Z,53.06
2018-08-17T06:09:20.098Z,53.43
2018-08-17T06:11:49.327Z,53.54
2018-08-17T06:14:18.419Z,52.35
2018-08-17T06:16:47.607Z,53.20
2018-08-17T06:19:16.909Z,52.96
2018-08-17T06:21:46.039Z,53.19
2018-08-17T06:24:15.188Z,53.49
2018-08-17T06:26:44.397Z,52.28
2018-08-17T06:29:13.581Z,51.92
2018-08-17T06:31:42.952Z,52.71
2018-08-17T06:34:12.079Z,52.40
2018-08-17T06:36:41.219Z,52.05
2018-08-17T06:39:11.587Z,51.35
2018-08-17T06:41:41.699Z,51.29
2018-08-17T06:44:10.875Z,51.76
2018-08-17T06:46:40.100Z,51.46
2018-08-17T06:49:09.263Z,51.04
2018-08-17T06:51:38.403Z,50.57
2018-08-17T06:54:07.735Z,50.14
2018-08-17T06:56:36.904Z,50.65
2018-08-17T06:59:06.283Z,49.87
2018-08-17T07:01:35.428Z,50.04
2018-08-17T07:04:04.595Z,51.14
2018-08-17T07:06:33.744Z,50.41
2018-08-17T07:09:02.939Z,49.66
2018-08-17T07:11:32.040Z,51.10
2018-08-17T07:14:01.195Z,49.83
2018-08-17T07:16:30.405Z,49.59
2018-08-17T07:18:59.500Z,50.42
2018-08-17T07:21:28.670Z,49.28
2018-08-17T07:23:58.074Z,50.60
2018-08-17T07:26:27.704Z,50.54
2018-08-17T07:28:56.869Z,50.44
2018-08-17T07:31:26.813Z,49.88
2018-08-17T07:33:55.981Z,47.14
2018-08-17T07:36:25.655Z,48.27
2018-08-17T07:38:54.802Z,47.04
2018-08-17T07:41:26.004Z,48.19
2018-08-17T07:43:55.191Z,46.77
2018-08-17T07:46:25.442Z,47.14
2018-08-17T07:48:54.596Z,47.72
2018-08-17T07:51:25.143Z,47.07
2018-08-17T07:53:54.428Z,46.01
2018-08-17T07:56:25.183Z,46.34
2018-08-17T07:58:54.375Z,45.83
2018-08-17T08:01:25.307Z,46.51
2018-08-17T08:03:54.670Z,46.87
2018-08-17T08:06:24.220Z,46.13
2018-08-17T08:08:54.357Z,46.10
2018-08-17T08:11:24.367Z,45.04
2018-08-17T08:13:54.514Z,44.48
2018-08-17T08:16:24.491Z,43.87
2018-08-17T08:18:54.508Z,44.00
2018-08-17T08:21:24.651Z,43.37
2018-08-17T08:23:54.648Z,43.58
2018-08-17T08:26:24.720Z,42.89
2018-08-17T08:29:01.079Z,42.01
2018-08-17T08:31:30.619Z,41.87
2018-08-17T08:33:59.807Z,41.11
2018-08-17T08:36:28.947Z,41.40
2018-08-17T08:38:58.096Z,41.54
2018-08-17T08:41:27.788Z,42.88
2018-08-17T08:43:56.984Z,40.25
2018-08-17T08:46:26.571Z,42.98
2018-08-17T08:48:55.798Z,40.35
2018-08-17T08:51:26.576Z,40.64
2018-08-17T08:53:55.739Z,39.49
2018-08-17T08:56:26.738Z,40.27
2018-08-17T08:58:55.975Z,40.41
2018-08-17T09:07:09.452Z,40.64
2018-08-17T09:09:38.607Z,39.64
2018-08-17T09:12:07.769Z,39.11
2018-08-17T09:14:36.920Z,39.24
2018-08-17T09:17:06.184Z,37.58
2018-08-17T09:19:35.336Z,39.42
2018-08-17T09:22:04.575Z,38.89
2018-08-17T09:24:34.210Z,38.04
2018-08-17T09:27:03.371Z,38.12
2018-08-17T09:29:32.555Z,37.14
2018-08-17T09:32:01.708Z,38.34
2018-08-17T09:34:30.866Z,39.14
2018-08-17T09:37:00.015Z,38.58
2018-08-17T09:39:29.298Z,38.61
2018-08-17T09:41:58.520Z,37.86
2018-08-17T09:44:27.875Z,37.02
2018-08-17T09:46:57.055Z,38.19
2018-08-17T09:49:26.903Z,38.16
2018-08-17T09:51:56.903Z,36.83
2018-08-17T09:54:27.072Z,39.30
2018-08-17T09:56:57.262Z,37.97
2018-08-17T09:59:27.228Z,37.63
2018-08-17T10:02:03.419Z,37.22
2018-08-17T10:04:38.127Z,37.02
2018-08-17T10:07:12.970Z,37.27
2018-08-17T10:09:47.787Z,37.10
2018-08-17T10:12:16.951Z,36.81
2018-08-17T10:14:46.131Z,37.49
2018-08-17T10:17:15.371Z,37.09
2018-08-17T10:19:44.559Z,38.03
2018-08-17T10:22:13.740Z,38.69
2018-08-17T10:24:42.904Z,39.07
2018-08-17T10:27:12.052Z,37.19
2018-08-17T10:29:41.247Z,37.01
2018-08-17T10:32:10.511Z,38.21
2018-08-17T10:34:39.676Z,37.48
2018-08-17T10:37:09.171Z,37.39
2018-08-17T10:39:38.507Z,38.08
2018-08-17T10:42:07.678Z,38.89
2018-08-17T10:44:37.173Z,39.11
2018-08-17T10:47:06.535Z,38.94
2018-08-17T10:49:35.695Z,38.88
2018-08-17T10:52:05.114Z,40.01
2018-08-17T10:54:34.259Z,39.04
2018-08-17T10:57:08.100Z,39.87
2018-08-17T10:59:37.972Z,38.84
2018-08-17T11:02:07.190Z,39.84
2018-08-17T11:04:36.391Z,38.56
2018-08-17T11:07:05.792Z,39.35
2018-08-17T11:09:34.938Z,38.49
2018-08-17T11:12:04.097Z,38.60
2018-08-17T11:14:33.264Z,37.55
2018-08-17T11:17:03.002Z,38.59
2018-08-17T11:19:32.096Z,37.57
2018-08-17T11:22:01.371Z,37.62
2018-08-17T11:24:30.542Z,39.25
2018-08-17T11:26:59.800Z,37.73
2018-08-17T11:29:29.883Z,37.76
2018-08-17T11:31:59.940Z,38.45
2018-08-17T11:34:30.220Z,36.25
2018-08-17T11:42:03.776Z,36.88
2018-08-17T11:44:32.939Z,37.71
2018-08-17T11:47:02.136Z,36.21
2018-08-17T11:49:31.347Z,34.43
2018-08-17T11:52:00.720Z,34.19
2018-08-17T11:54:31.783Z,37.27
2018-08-17T11:57:01.032Z,34.99
2018-08-17T11:59:30.858Z,35.30
2018-08-17T12:02:01.292Z,36.04
2018-08-17T12:04:30.985Z,35.21
2018-08-17T12:07:01.112Z,36.50
2018-08-17T12:09:31.264Z,34.03
2018-08-17T12:12:01.347Z,34.95
2018-08-17T12:14:31.411Z,33.33
2018-08-17T12:17:01.544Z,32.91
2018-08-17T12:19:31.871Z,32.96
2018-08-17T12:22:01.696Z,32.85
2018-08-17T12:24:31.884Z,33.05
2018-08-17T12:27:01.868Z,31.87
2018-08-17T12:29:32.032Z,32.70
2018-08-17T12:32:02.008Z,34.18
2018-08-17T12:34:32.111Z,33.90
2018-08-17T12:37:02.454Z,34.24
2018-08-17T12:39:32.398Z,34.39
2018-08-17T12:42:02.543Z,34.24
2018-08-17T12:44:32.643Z,34.53
2018-08-17T12:47:01.800Z,32.57
2018-08-17T12:49:30.988Z,33.58
2018-08-17T12:52:00.156Z,33.41
2018-08-17T12:54:30.763Z,34.67
2018-08-17T12:57:00.894Z,33.08
2018-08-17T12:59:30.710Z,33.28
2018-08-17T13:01:59.891Z,34.07
2018-08-17T13:04:29.454Z,33.62
2018-08-17T13:06:58.921Z,33.08
2018-08-17T13:09:28.067Z,32.88
2018-08-17T13:12:00.499Z,33.08
2018-08-17T13:14:29.875Z,33.83
2018-08-17T13:17:01.044Z,33.59
2018-08-17T13:19:30.238Z,32.83
2018-08-17T13:21:59.411Z,33.17
2018-08-17T13:24:28.563Z,32.80
2018-08-17T13:26:57.732Z,32.08
2018-08-17T13:29:26.944Z,32.02
2018-08-17T13:31:56.611Z,32.49
2018-08-17T13:34:36.679Z,32.09
2018-08-17T13:37:06.094Z,34.43
2018-08-17T13:39:35.273Z,33.68
2018-08-17T13:42:04.447Z,32.89
2018-08-17T13:44:34.505Z,31.81
2018-08-17T13:47:04.718Z,32.13
2018-08-17T13:49:34.667Z,32.96
2018-08-17T13:52:04.677Z,32.20
2018-08-17T13:54:34.811Z,32.60
2018-08-17T13:57:04.952Z,34.19
2018-08-17T13:59:35.022Z,33.58
2018-08-17T14:02:05.769Z,32.85
2018-08-17T14:04:35.148Z,32.31
2018-08-17T14:07:05.476Z,31.57
2018-08-17T14:09:35.351Z,31.88
2018-08-17T14:12:05.615Z,32.42
2018-08-17T14:14:35.471Z,33.17
2018-08-17T14:17:06.334Z,31.72
2018-08-17T14:19:35.961Z,33.62
2018-08-17T14:22:05.740Z,33.74
2018-08-17T14:24:35.842Z,33.09
2018-08-17T14:27:05.924Z,33.82
2018-08-17T14:29:36.075Z,34.39
2018-08-17T14:32:06.670Z,33.88
2018-08-17T14:34:36.211Z,34.21
2018-08-17T14:37:06.442Z,32.90
2018-08-17T14:39:36.403Z,33.91
2018-08-17T14:42:06.868Z,33.29
2018-08-17T14:44:36.891Z,33.80
2018-08-17T14:47:06.912Z,33.69
2018-08-17T14:49:36.735Z,34.12
2018-08-17T14:52:06.860Z,35.01
2018-08-17T14:54:36.975Z,34.48
2018-08-17T14:57:07.230Z,35.58
2018-08-17T14:59:37.128Z,35.17
2018-08-17T15:02:07.391Z,36.07
2018-08-17T15:04:37.344Z,37.03
2018-08-17T15:07:07.496Z,38.46
2018-08-17T15:09:36.727Z,38.24
2018-08-17T15:12:06.036Z,38.43
2018-08-17T15:14:35.175Z,38.89
2018-08-17T15:17:04.327Z,38.87
2018-08-17T15:19:33.475Z,39.53
2018-08-17T15:22:02.719Z,38.57
2018-08-17T15:24:32.126Z,39.94
2018-08-17T15:27:01.288Z,40.44
2018-08-17T15:29:30.438Z,40.18
2018-08-17T15:31:59.584Z,38.70
2018-08-17T15:34:28.727Z,38.38
2018-08-17T15:36:58.013Z,38.76
2018-08-17T15:39:27.159Z,39.95
2018-08-17T15:41:56.428Z,40.02
2018-08-17T15:44:27.326Z,39.87
2018-08-17T15:46:57.664Z,38.98
2018-08-17T15:49:33.122Z,38.51
2018-08-17T15:52:03.487Z,39.39
2018-08-17T15:54:32.619Z,38.27
2018-08-17T15:57:01.781Z,39.95
2018-08-17T15:59:30.932Z,38.78
2018-08-17T16:02:00.171Z,39.09
2018-08-17T16:04:29.324Z,39.67
2018-08-17T16:06:58.488Z,39.08
2018-08-17T16:09:27.647Z,39.73
2018-08-17T16:11:56.795Z,38.38
2018-08-17T16:14:26.839Z,40.15
2018-08-17T16:17:01.547Z,40.34
2018-08-17T16:19:31.367Z,39.99
2018-08-17T16:22:00.531Z,39.31
2018-08-17T16:24:29.727Z,39.63
2018-08-17T16:26:58.875Z,39.32
2018-08-17T16:29:28.031Z,39.41
2018-08-17T16:31:57.258Z,40.10
2018-08-17T16:34:26.772Z,38.61
2018-08-17T16:36:55.945Z,38.72
2018-08-17T16:39:25.274Z,39.37
2018-08-17T16:41:54.865Z,40.21
2018-08-17T16:44:24.543Z,39.36
2018-08-17T16:46:53.724Z,39.20
2018-08-17T16:49:22.988Z,38.99
2018-08-17T16:51:52.226Z,40.06
2018-08-17T16:54:21.397Z,40.29
2018-08-17T16:56:50.592Z,40.41
2018-08-17T16:59:19.759Z,39.63
2018-08-17T17:01:49.335Z,40.57
2018-08-17T17:04:19.083Z,40.26
2018-08-17T17:06:48.216Z,41.13
2018-08-17T17:09:17.391Z,41.10
2018-08-17T17:11:46.581Z,41.39
2018-08-17T17:14:15.755Z,42.02
2018-08-17T17:16:48.015Z,43.12
2018-08-17T17:19:20.055Z,43.07
2018-08-17T17:21:50.171Z,43.29
2018-08-17T17:24:19.949Z,44.12
2018-08-17T17:26:49.153Z,43.57
2018-08-17T17:29:18.317Z,42.38
2018-08-17T17:31:50.902Z,41.70
2018-08-17T17:34:20.115Z,43.20
2018-08-17T17:36:49.271Z,42.32
2018-08-17T17:39:18.448Z,42.49
2018-08-17T17:41:47.608Z,41.79
2018-08-17T17:44:16.767Z,42.24
2018-08-17T17:46:45.913Z,43.76
2018-08-17T17:49:15.091Z,44.19
2018-08-17T17:51:44.267Z,43.55
2018-08-17T17:54:24.461Z,45.06
2018-08-17T17:57:00.815Z,44.65
2018-08-17T17:59:30.248Z,44.96
2018-08-17T18:01:59.415Z,45.50
2018-08-17T18:04:31.790Z,45.86
2018-08-17T18:07:01.282Z,46.63
2018-08-17T18:09:30.439Z,46.12
2018-08-17T18:11:59.599Z,46.93
2018-08-17T18:14:28.812Z,46.36
2018-08-17T18:16:57.964Z,46.47
2018-08-17T18:19:27.119Z,46.38
2018-08-17T18:21:56.263Z,46.16
2018-08-17T18:24:25.439Z,46.86
2018-08-17T18:26:54.680Z,45.59
2018-08-17T18:29:23.844Z,45.46
2018-08-17T18:31:53.007Z,44.80
2018-08-17T18:34:22.159Z,44.77
2018-08-17T18:36:51.315Z,45.11
2018-08-17T18:39:20.479Z,44.04
2018-08-17T18:41:49.618Z,44.11
2018-08-17T18:44:18.775Z,43.91
2018-08-17T18:46:47.943Z,44.58
2018-08-17T18:49:17.159Z,44.13
2018-08-17T18:51:46.314Z,45.01
2018-08-17T18:54:15.468Z,44.55
2018-08-17T18:56:45.556Z,44.68
2018-08-17T18:59:15.630Z,44.85
2018-08-17T19:01:45.755Z,43.73
2018-08-17T19:04:15.832Z,43.72
2018-08-17T19:06:46.355Z,44.40
2018-08-17T19:09:16.055Z,43.80
2018-08-17T19:11:46.143Z,44.15
2018-08-17T19:14:16.255Z,44.86
2018-08-17T19:16:46.423Z,44.52
2018-08-17T19:19:16.506Z,45.60
2018-08-17T19:21:46.684Z,44.88
2018-08-17T19:24:16.867Z,44.44
2018-08-17T19:26:47.087Z,44.42
2018-08-17T19:29:16.881Z,45.07
2018-08-17T19:31:56.132Z,45.63
2018-08-17T19:34:28.157Z,44.25
2018-08-17T19:36:57.347Z,45.03
2018-08-17T19:39:32.082Z,44.83
2018-08-17T19:42:01.361Z,43.89
2018-08-17T19:44:30.846Z,44.28
2018-08-17T19:46:59.991Z,44.85
2018-08-17T19:49:29.368Z,44.63
2018-08-17T19:51:58.515Z,45.75
2018-08-17T19:54:27.667Z,45.09
2018-08-17T19:56:56.848Z,45.33
2018-08-17T19:59:26.020Z,46.91
2018-08-17T20:01:55.390Z,47.01
2018-08-17T20:04:24.531Z,46.01
2018-08-17T20:06:53.739Z,46.17
2018-08-17T20:09:22.882Z,47.08
2018-08-17T20:11:52.138Z,46.15
2018-08-17T20:14:21.340Z,46.50
2018-08-17T20:16:50.504Z,46.79
2018-08-17T20:19:19.660Z,46.78
2018-08-17T20:21:48.815Z,46.97
2018-08-17T20:24:18.677Z,47.26
2018-08-17T20:26:51.847Z,48.39
2018-08-17T20:29:20.920Z,48.94
2018-08-17T20:31:50.122Z,48.36
2018-08-17T20:34:19.409Z,49.35
2018-08-17T20:36:48.939Z,48.86
2018-08-17T20:39:18.135Z,49.60
2018-08-17T20:41:47.291Z,49.01
2018-08-17T20:44:16.495Z,52.26
2018-08-17T20:46:45.727Z,56.47
2018-08-17T20:49:14.892Z,57.53
2018-08-17T20:51:51.179Z,60.76
2018-08-17T20:54:20.331Z,60.60
2018-08-17T20:56:49.482Z,61.20
2018-08-17T20:59:20.103Z,61.13
2018-08-17T21:01:49.328Z,61.83
2018-08-17T21:04:19.415Z,61.68
2018-08-17T21:06:49.655Z,61.32
2018-08-17T21:09:19.752Z,61.43
2018-08-17T21:11:49.611Z,61.12
2018-08-17T21:14:19.779Z,61.08
2018-08-17T21:16:49.663Z,60.96
2018-08-17T21:19:32.900Z,59.98
2018-08-17T21:22:02.157Z,59.31
2018-08-17T21:24:31.323Z,59.70
2018-08-17T21:27:01.269Z,59.21
2018-08-17T21:29:30.499Z,60.09
2018-08-17T21:31:59.580Z,59.80
2018-08-17T21:34:28.763Z,59.42
2018-08-17T21:36:57.927Z,60.12
2018-08-17T21:39:27.494Z,59.21
2018-08-17T21:41:56.980Z,58.78
2018-08-17T21:44:26.148Z,59.38
2018-08-17T21:47:00.547Z,59.75
2018-08-17T21:49:29.704Z,59.32
2018-08-17T21:52:01.118Z,59.33
2018-08-17T21:54:31.935Z,59.56
2018-08-17T21:57:01.964Z,59.03
2018-08-17T21:59:49.725Z,59.63
2018-08-17T22:02:19.638Z,60.03
2018-08-17T22:04:48.811Z,61.49
2018-08-17T22:07:20.776Z,60.64
2018-08-17T22:09:51.449Z,62.00
2018-08-17T22:12:20.966Z,60.89
2018-08-17T22:14:50.914Z,61.85
2018-08-17T22:17:36.003Z,60.62
2018-08-17T22:20:08.825Z,61.79
2018-08-17T22:22:38.082Z,60.63
2018-08-17T22:25:12.651Z,60.53
2018-08-17T22:27:41.848Z,60.73
2018-08-17T22:30:19.823Z,61.16
2018-08-17T22:32:48.946Z,61.34
2018-08-17T22:35:18.323Z,61.02
2018-08-17T22:37:47.506Z,60.97
2018-08-17T22:40:16.659Z,60.79
2018-08-17T22:42:47.988Z,60.93
2018-08-17T22:45:17.280Z,61.79
2018-08-17T22:47:46.568Z,62.22
2018-08-17T22:50:15.713Z,61.56
2018-08-17T22:52:44.878Z,60.94
2018-08-17T22:55:14.296Z,61.93
2018-08-17T22:57:43.466Z,61.61
2018-08-17T23:00:18.488Z,63.08
2018-08-17T23:02:49.011Z,62.86
2018-08-17T23:05:23.335Z,62.07
2018-08-17T23:07:52.491Z,62.62
2018-08-17T23:10:23.148Z,62.28
2018-08-17T23:12:53.115Z,62.30
2018-08-17T23:15:22.310Z,62.68
2018-08-17T23:17:53.411Z,62.52
2018-08-17T23:20:27.778Z,63.02
2018-08-17T23:22:58.055Z,62.59
2018-08-17T23:25:27.802Z,63.11
2018-08-17T23:27:56.976Z,61.86
2018-08-17T23:30:26.120Z,61.79
2018-08-17T23:32:55.283Z,61.14
2018-08-17T23:35:24.431Z,60.88
2018-08-17T23:37:53.606Z,61.44
2018-08-17T23:40:22.746Z,60.74
2018-08-17T23:42:52.868Z,61.59
2018-08-17T23:45:23.039Z,61.51
2018-08-17T23:47:52.230Z,61.60
2018-08-17T23:50:21.375Z,61.35
2018-08-17T23:52:50.583Z,61.24
2018-08-17T23:55:19.771Z,60.95
2018-08-17T23:57:48.931Z,61.43
